createdAt,value
2023-01-19T00:00:59.751Z,100128.97
2023-01-19T00:03:26.536Z,100124.47
2023-01-19T00:05:53.157Z,100136.63
2023-01-19T00:08:19.819Z,100134.91
2023-01-19T00:10:51.287Z,100116.00
2023-01-19T00:13:18.223Z,100123.22
2023-01-19T00:15:45.453Z,100136.19
2023-01-19T00:18:12.258Z,100143.59
2023-01-19T00:20:42.375Z,100138.22
2023-01-19T00:23:11.546Z,100119.75
2023-01-19T00:25:42.691Z,100152.13
2023-01-19T00:28:14.987Z,100122.56
2023-01-19T00:30:42.623Z,100126.88
2023-01-19T00:33:14.647Z,100157.06
2023-01-19T00:35:42.764Z,100142.53
2023-01-19T00:38:10.754Z,100134.78
2023-01-19T00:40:37.389Z,100138.84
2023-01-19T00:43:06.591Z,100108.31
2023-01-19T00:45:34.077Z,100125.75
2023-01-19T00:48:01.588Z,100139.22
2023-01-19T00:50:30.496Z,100118.13
2023-01-19T00:53:01.467Z,100133.41
2023-01-19T00:55:29.431Z,100140.41
2023-01-19T00:57:56.501Z,100134.78
2023-01-19T01:00:24.096Z,100141.91
2023-01-19T01:02:52.572Z,100127.38
2023-01-19T01:05:20.317Z,100157.56
2023-01-19T01:07:49.649Z,100130.97
2023-01-19T01:10:23.707Z,100149.38
2023-01-19T01:12:56.055Z,100136.53
2023-01-19T01:15:27.704Z,100156.06
2023-01-19T01:17:57.219Z,100163.25
2023-01-19T01:20:28.145Z,100160.56
2023-01-19T01:22:55.919Z,100156.78
2023-01-19T01:25:24.114Z,100135.31
2023-01-19T01:27:51.402Z,100125.50
2023-01-19T01:30:21.353Z,100146.13
2023-01-19T01:32:48.172Z,100141.97
2023-01-19T01:35:16.398Z,100152.25
2023-01-19T01:37:46.261Z,100123.06
2023-01-19T01:40:15.383Z,100160.09
2023-01-19T01:42:43.039Z,100133.47
2023-01-19T01:45:30.450Z,100170.13
2023-01-19T01:48:10.480Z,100166.72
2023-01-19T01:51:07.683Z,100165.94
2023-01-19T01:53:36.399Z,100172.31
2023-01-19T01:56:09.201Z,100171.59
2023-01-19T01:58:37.847Z,100177.53
2023-01-19T02:01:25.238Z,100170.75
2023-01-19T02:03:57.521Z,100177.44
2023-01-19T02:06:24.680Z,100184.91
2023-01-19T02:09:21.343Z,100185.22
2023-01-19T02:12:09.563Z,100182.00
2023-01-19T02:14:38.924Z,100154.94
2023-01-19T02:17:07.073Z,100181.56
2023-01-19T02:19:41.602Z,100188.06
2023-01-19T02:22:29.911Z,100190.84
2023-01-19T02:24:56.843Z,100182.16
2023-01-19T02:27:25.880Z,100188.38
2023-01-19T02:29:53.447Z,100192.03
2023-01-19T02:32:20.127Z,100191.28
2023-01-19T02:34:46.893Z,100198.50
2023-01-19T02:37:17.154Z,100199.47
2023-01-19T02:39:50.922Z,100199.56
2023-01-19T02:42:23.243Z,100203.47
2023-01-19T02:44:53.429Z,100181.09
2023-01-19T02:47:20.075Z,100214.13
2023-01-19T02:49:57.372Z,100202.16
2023-01-19T02:52:24.643Z,100217.78
2023-01-19T02:54:56.163Z,100219.59
2023-01-19T02:57:40.134Z,100220.47
2023-01-19T03:00:28.207Z,100218.63
2023-01-19T03:03:23.389Z,100226.91
2023-01-19T03:05:54.937Z,100226.06
2023-01-19T03:08:39.750Z,100228.75
2023-01-19T03:11:10.488Z,100230.78
2023-01-19T03:13:50.155Z,100236.81
2023-01-19T03:16:30.406Z,100239.72
2023-01-19T03:19:06.359Z,100238.84
2023-01-19T03:21:35.826Z,100245.31
2023-01-19T03:24:04.896Z,100252.63
2023-01-19T03:26:40.025Z,100252.53
2023-01-19T03:29:10.257Z,100237.13
2023-01-19T03:31:37.959Z,100266.81
2023-01-19T03:34:13.534Z,100257.38
2023-01-19T03:36:53.889Z,100271.44
2023-01-19T03:39:27.365Z,100278.56
2023-01-19T03:42:01.794Z,100254.97
2023-01-19T03:44:31.347Z,100289.63
2023-01-19T03:47:02.018Z,100291.53
2023-01-19T03:49:31.523Z,100292.63
2023-01-19T03:51:59.320Z,100292.63
2023-01-19T03:54:26.283Z,100304.03
2023-01-19T03:56:52.934Z,100304.34
2023-01-19T03:59:20.111Z,100306.81
2023-01-19T04:01:47.292Z,100316.53
2023-01-19T04:04:17.260Z,100281.31
2023-01-19T04:06:44.248Z,100280.13
2023-01-19T04:09:13.139Z,100292.63
2023-01-19T04:11:39.714Z,100299.97
2023-01-19T04:14:08.385Z,100283.81
2023-01-19T04:16:35.556Z,100279.91
2023-01-19T04:19:02.179Z,100320.47
2023-01-19T04:21:31.201Z,100312.72
2023-01-19T04:23:59.231Z,100311.66
2023-01-19T04:26:28.595Z,100295.63
2023-01-19T04:28:55.206Z,100318.44
2023-01-19T04:31:23.341Z,100335.88
2023-01-19T04:33:50.517Z,100327.91
2023-01-19T04:36:19.590Z,100309.59
2023-01-19T04:38:49.262Z,100309.28
2023-01-19T04:41:16.326Z,100298.53
2023-01-19T04:43:45.366Z,100257.34
2023-01-19T04:46:12.053Z,100267.47
2023-01-19T04:48:40.594Z,100274.44
2023-01-19T04:51:09.065Z,100265.53
2023-01-19T04:53:36.476Z,100269.91
2023-01-19T04:56:03.157Z,100278.13
2023-01-19T04:58:30.290Z,100261.84
2023-01-19T05:00:56.925Z,100256.25
2023-01-19T05:03:25.610Z,100246.91
2023-01-19T05:05:56.310Z,100268.66
2023-01-19T05:08:23.108Z,100257.66
2023-01-19T05:10:52.455Z,100255.63
2023-01-19T05:13:21.501Z,100235.09
2023-01-19T05:15:48.163Z,100254.88
2023-01-19T05:18:15.247Z,100270.91
2023-01-19T05:20:41.913Z,100273.06
2023-01-19T05:23:08.445Z,100239.34
2023-01-19T05:25:35.152Z,100276.69
2023-01-19T05:28:02.995Z,100284.75
2023-01-19T05:30:31.962Z,100263.34
2023-01-19T05:32:59.076Z,100284.97
2023-01-19T05:35:35.195Z,100270.66
2023-01-19T05:38:02.708Z,100301.94
2023-01-19T05:40:29.328Z,100302.81
2023-01-19T05:43:00.223Z,100269.22
2023-01-19T05:45:29.883Z,100302.94
2023-01-19T05:47:56.622Z,100294.44
2023-01-19T05:50:23.575Z,100318.97
2023-01-19T05:52:53.317Z,100316.28
2023-01-19T05:55:21.358Z,100296.56
2023-01-19T05:59:19.263Z,100307.47
2023-01-19T06:00:48.540Z,100293.75
2023-01-19T06:03:15.283Z,100320.66
2023-01-19T06:05:41.857Z,100319.81
2023-01-19T06:08:08.810Z,100324.34
2023-01-19T06:10:38.045Z,100320.66
2023-01-19T06:13:11.281Z,100296.88
2023-01-19T06:15:38.207Z,100330.47
2023-01-19T06:18:05.181Z,100327.78
2023-01-19T06:20:31.850Z,100305.59
2023-01-19T06:22:58.978Z,100337.56
2023-01-19T06:25:26.081Z,100343.78
2023-01-19T06:27:52.860Z,100350.91
2023-01-19T06:30:19.926Z,100330.31
2023-01-19T06:32:47.544Z,100350.13
2023-01-19T06:35:14.517Z,100351.97
2023-01-19T06:37:41.154Z,100338.38
2023-01-19T06:40:14.322Z,100358.78
2023-01-19T06:42:41.200Z,100372.22
2023-01-19T06:45:10.208Z,100368.75
2023-01-19T06:47:37.087Z,100368.84
2023-01-19T06:50:06.032Z,100355.06
2023-01-19T06:52:42.404Z,100377.25
2023-01-19T06:55:13.928Z,100390.50
2023-01-19T06:57:40.807Z,100375.31
2023-01-19T07:00:10.092Z,100394.16
2023-01-19T07:02:42.705Z,100389.44
2023-01-19T07:05:10.544Z,100390.09
2023-01-19T07:07:39.771Z,100398.06
2023-01-19T07:10:08.297Z,100383.06
2023-01-19T07:12:35.630Z,100415.47
2023-01-19T07:15:02.539Z,100405.13
2023-01-19T07:17:29.338Z,100412.09
2023-01-19T07:19:55.949Z,100388.41
2023-01-19T07:22:22.546Z,100364.66
2023-01-19T07:24:51.641Z,100418.88
2023-01-19T07:27:18.215Z,100424.91
2023-01-19T07:29:45.022Z,100422.31
2023-01-19T07:32:14.993Z,100433.91
2023-01-19T07:34:44.103Z,100439.78
2023-01-19T07:37:13.499Z,100437.94
2023-01-19T07:39:40.162Z,100446.66
2023-01-19T07:42:07.387Z,100425.66
2023-01-19T07:44:34.301Z,100424.25
2023-01-19T07:47:01.125Z,100437.84
2023-01-19T07:49:32.471Z,100453.66
2023-01-19T07:51:59.406Z,100464.31
2023-01-19T07:54:26.149Z,100437.38
2023-01-19T07:56:55.837Z,100477.00
2023-01-19T07:59:22.847Z,100447.59
2023-01-19T08:01:53.660Z,100468.47
2023-01-19T08:04:20.947Z,100478.06
2023-01-19T08:06:48.211Z,100473.66
2023-01-19T08:09:18.344Z,100481.63
2023-01-19T08:11:44.973Z,100483.34
2023-01-19T08:14:15.739Z,100466.97
2023-01-19T08:16:42.471Z,100486.78
2023-01-19T08:19:09.600Z,100522.47
2023-01-19T08:21:36.685Z,100530.03
2023-01-19T08:24:03.492Z,100501.25
2023-01-19T08:26:35.789Z,100515.94
2023-01-19T08:29:06.195Z,100540.66
2023-01-19T08:31:35.623Z,100531.59
2023-01-19T08:34:05.914Z,100520.56
2023-01-19T08:36:32.873Z,100543.13
2023-01-19T08:38:59.510Z,100535.16
2023-01-19T08:41:28.975Z,100509.91
2023-01-19T08:43:55.779Z,100535.06
2023-01-19T08:46:22.397Z,100543.78
2023-01-19T08:48:49.564Z,100546.06
2023-01-19T08:51:17.568Z,100545.97
2023-01-19T08:53:46.684Z,100552.31
2023-01-19T08:56:14.424Z,100528.91
2023-01-19T08:58:46.703Z,100548.88
2023-01-19T09:01:17.287Z,100521.59
2023-01-19T09:03:44.451Z,100553.00
2023-01-19T09:06:17.349Z,100549.13
2023-01-19T09:08:47.175Z,100525.44
2023-01-19T09:11:17.698Z,100544.53
2023-01-19T09:13:44.703Z,100560.25
2023-01-19T09:16:13.431Z,100562.22
2023-01-19T09:18:40.583Z,100543.44
2023-01-19T09:21:08.323Z,100569.72
2023-01-19T09:23:34.942Z,100554.53
2023-01-19T09:26:03.487Z,100575.88
2023-01-19T09:28:30.213Z,100584.31
2023-01-19T09:30:59.620Z,100577.50
2023-01-19T09:33:28.978Z,100554.66
2023-01-19T09:35:58.116Z,100575.88
2023-01-19T09:38:25.972Z,100587.56
2023-01-19T09:40:58.979Z,100587.97
2023-01-19T09:43:43.103Z,100593.38
2023-01-19T09:46:20.337Z,100590.16
2023-01-19T09:48:58.546Z,100595.66
2023-01-19T09:51:29.193Z,100597.16
2023-01-19T09:54:20.846Z,100606.97
2023-01-19T09:56:52.385Z,100599.41
2023-01-19T09:59:24.669Z,100611.59
2023-01-19T10:02:29.007Z,100609.25
2023-01-19T10:05:05.482Z,100610.94
2023-01-19T10:07:53.429Z,100621.28
2023-01-19T10:10:27.235Z,100620.84
2023-01-19T10:13:26.235Z,100620.63
2023-01-19T10:16:05.044Z,100616.72
2023-01-19T10:18:48.324Z,100622.88
2023-01-19T10:21:33.654Z,100622.75
2023-01-19T10:24:19.819Z,100607.59
2023-01-19T10:26:49.962Z,100626.56
2023-01-19T10:29:29.240Z,100622.00
2023-01-19T10:32:10.181Z,100622.00
2023-01-19T10:34:37.147Z,100621.91
2023-01-19T10:37:22.118Z,100625.91
2023-01-19T10:40:02.846Z,100627.19
2023-01-19T10:42:31.174Z,100624.50
2023-01-19T10:44:58.531Z,100629.88
2023-01-19T10:47:34.153Z,100621.91
2023-01-19T10:50:08.435Z,100625.56
2023-01-19T10:52:39.860Z,100626.34
2023-01-19T10:55:25.100Z,100606.47
2023-01-19T10:57:53.670Z,100616.84
2023-01-19T11:00:39.234Z,100626.00
2023-01-19T11:03:31.550Z,100630.53
2023-01-19T11:06:13.863Z,100614.22
2023-01-19T11:08:41.192Z,100600.44
2023-01-19T11:11:09.134Z,100618.78
2023-01-19T11:13:36.725Z,100616.41
2023-01-19T11:16:14.944Z,100602.81
2023-01-19T11:18:45.116Z,100628.69
2023-01-19T11:21:14.017Z,100626.72
2023-01-19T11:23:51.666Z,100623.69
2023-01-19T11:26:25.707Z,100598.09
2023-01-19T11:28:56.332Z,100609.72
2023-01-19T11:31:29.610Z,100619.50
2023-01-19T11:33:59.849Z,100624.56
2023-01-19T11:36:36.720Z,100625.94
2023-01-19T11:39:15.167Z,100622.91
2023-01-19T11:41:41.978Z,100624.75
2023-01-19T11:44:35.358Z,100618.13
2023-01-19T11:47:27.646Z,100623.69
2023-01-19T11:50:06.612Z,100630.84
2023-01-19T11:52:42.312Z,100635.78
2023-01-19T11:55:38.920Z,100623.75
2023-01-19T11:58:06.153Z,100603.81
2023-01-19T12:00:38.288Z,100609.63
2023-01-19T12:03:10.022Z,100602.91
2023-01-19T12:05:48.033Z,100623.31
2023-01-19T12:08:30.954Z,100605.88
2023-01-19T12:11:00.024Z,100597.53
2023-01-19T12:13:28.031Z,100615.25
2023-01-19T12:16:03.136Z,100612.09
2023-01-19T12:18:38.905Z,100616.28
2023-01-19T12:21:05.734Z,100619.13
2023-01-19T12:23:55.655Z,100625.78
2023-01-19T12:26:34.419Z,100612.88
2023-01-19T12:29:14.138Z,100601.19
2023-01-19T12:31:43.128Z,100617.09
2023-01-19T12:34:31.709Z,100622.00
2023-01-19T12:37:04.239Z,100624.31
2023-01-19T12:39:33.390Z,100622.03
2023-01-19T12:42:06.169Z,100623.34
2023-01-19T12:44:34.538Z,100619.94
2023-01-19T12:47:10.306Z,100625.69
2023-01-19T12:49:53.872Z,100607.25
2023-01-19T12:52:35.613Z,100601.84
2023-01-19T12:55:23.276Z,100624.84
2023-01-19T12:58:08.370Z,100625.44
2023-01-19T13:00:37.797Z,100600.38
2023-01-19T13:03:24.349Z,100630.00
2023-01-19T13:05:57.496Z,100601.34
2023-01-19T13:08:30.686Z,100625.09
2023-01-19T13:11:03.300Z,100631.22
2023-01-19T13:13:38.304Z,100605.28
2023-01-19T13:16:30.688Z,100616.22
2023-01-19T13:19:06.580Z,100626.78
2023-01-19T13:21:42.414Z,100625.56
2023-01-19T13:24:22.454Z,100626.44
2023-01-19T13:26:49.251Z,100628.88
2023-01-19T13:29:41.754Z,100620.66
2023-01-19T13:32:18.945Z,100621.75
2023-01-19T13:34:51.992Z,100608.38
2023-01-19T13:37:22.663Z,100624.34
2023-01-19T13:39:53.347Z,100596.06
2023-01-19T13:42:39.608Z,100623.59
2023-01-19T13:45:29.336Z,100621.66
2023-01-19T13:47:58.796Z,100600.09
2023-01-19T13:50:27.021Z,100632.28
2023-01-19T13:52:55.701Z,100608.56
2023-01-19T13:55:24.624Z,100631.66
2023-01-19T13:57:54.321Z,100631.38
2023-01-19T14:00:28.452Z,100632.97
2023-01-19T14:02:59.458Z,100630.63
2023-01-19T14:05:35.619Z,100623.31
2023-01-19T14:08:08.233Z,100649.03
2023-01-19T14:10:36.478Z,100620.13
2023-01-19T14:13:06.219Z,100617.69
2023-01-19T14:15:35.078Z,100648.19
2023-01-19T14:18:28.535Z,100650.66
2023-01-19T14:21:03.595Z,100646.25
2023-01-19T14:23:45.995Z,100639.81
2023-01-19T14:26:37.711Z,100656.47
2023-01-19T14:29:19.897Z,100653.00
2023-01-19T14:31:50.066Z,100661.50
2023-01-19T14:34:39.286Z,100650.91
2023-01-19T14:37:30.661Z,100672.22
2023-01-19T14:40:08.334Z,100675.16
2023-01-19T14:42:41.647Z,100677.22
2023-01-19T14:45:35.397Z,100661.09
2023-01-19T14:48:07.218Z,100663.28
2023-01-19T14:50:37.488Z,100690.97
2023-01-19T14:53:17.023Z,100663.75
2023-01-19T14:55:51.020Z,100698.19
2023-01-19T14:58:19.947Z,100695.72
2023-01-19T15:00:50.069Z,100709.34
2023-01-19T15:03:17.009Z,100678.03
2023-01-19T15:05:47.068Z,100708.91
2023-01-19T15:08:34.714Z,100704.94
2023-01-19T15:11:10.794Z,100697.19
2023-01-19T15:13:39.177Z,100710.47
2023-01-19T15:16:06.921Z,100704.28
2023-01-19T15:18:33.672Z,100678.41
2023-01-19T15:21:03.004Z,100710.28
2023-01-19T15:23:31.257Z,100724.84
2023-01-19T15:26:04.942Z,100728.53
2023-01-19T15:28:32.193Z,100733.06
2023-01-19T15:31:02.541Z,100726.94
2023-01-19T15:33:33.183Z,100725.31
2023-01-19T15:36:02.434Z,100717.63
2023-01-19T15:38:29.352Z,100719.09
2023-01-19T15:40:58.739Z,100700.75
2023-01-19T15:43:28.613Z,100697.97
2023-01-19T15:46:02.609Z,100725.38
2023-01-19T15:48:29.462Z,100722.38
2023-01-19T15:50:57.132Z,100721.41
2023-01-19T15:53:24.664Z,100728.66
2023-01-19T15:56:06.978Z,100722.25
2023-01-19T15:58:33.777Z,100733.38
2023-01-19T16:01:00.539Z,100734.25
2023-01-19T16:03:27.520Z,100743.31
2023-01-19T16:05:54.327Z,100749.13
2023-01-19T16:08:22.141Z,100729.47
2023-01-19T16:10:48.803Z,100741.88
2023-01-19T16:13:18.207Z,100747.59
2023-01-19T16:15:45.058Z,100758.78
2023-01-19T16:18:11.831Z,100736.75
2023-01-19T16:20:38.527Z,100731.75
2023-01-19T16:23:20.618Z,100756.56
2023-01-19T16:25:59.594Z,100762.19
2023-01-19T16:28:27.180Z,100734.06
2023-01-19T16:30:54.181Z,100761.03
2023-01-19T16:33:20.835Z,100760.50
2023-01-19T16:35:49.885Z,100741.97
2023-01-19T16:38:16.750Z,100753.16
2023-01-19T16:40:47.700Z,100746.25
2023-01-19T16:43:15.246Z,100758.16
2023-01-19T16:46:02.760Z,100771.25
2023-01-19T16:48:29.906Z,100783.19
2023-01-19T16:51:03.329Z,100787.69
2023-01-19T16:53:37.133Z,100780.22
2023-01-19T16:56:07.629Z,100783.88
2023-01-19T16:58:42.879Z,100775.72
2023-01-19T17:01:15.032Z,100800.22
2023-01-19T17:03:42.271Z,100801.28
2023-01-19T17:06:12.300Z,100792.53
2023-01-19T17:08:39.588Z,100801.59
2023-01-19T17:11:12.528Z,100799.84
2023-01-19T17:13:39.655Z,100789.75
2023-01-19T17:16:09.644Z,100786.47
2023-01-19T17:18:38.260Z,100790.06
2023-01-19T17:21:09.538Z,100805.88
2023-01-19T17:23:37.585Z,100766.97
2023-01-19T17:26:05.099Z,100811.00
2023-01-19T17:28:34.475Z,100815.50
2023-01-19T17:31:09.469Z,100816.00
2023-01-19T17:33:39.328Z,100795.72
2023-01-19T17:36:13.089Z,100816.66
2023-01-19T17:38:40.370Z,100790.03
2023-01-19T17:41:14.949Z,100820.59
2023-01-19T17:43:41.974Z,100820.78
2023-01-19T17:46:09.178Z,100821.06
2023-01-19T17:48:35.903Z,100792.81
2023-01-19T17:51:09.839Z,100819.81
2023-01-19T17:53:38.055Z,100830.66
2023-01-19T17:56:10.907Z,100833.34
2023-01-19T17:58:38.320Z,100827.31
2023-01-19T18:01:25.250Z,100829.28
2023-01-19T18:03:53.060Z,100825.94
2023-01-19T18:06:20.161Z,100805.53
2023-01-19T18:08:47.952Z,100828.81
2023-01-19T18:11:16.583Z,100837.84
2023-01-19T18:13:45.317Z,100816.47
2023-01-19T18:16:21.437Z,100817.34
2023-01-19T18:18:50.007Z,100810.50
2023-01-19T18:21:17.761Z,100837.72
2023-01-19T18:23:45.230Z,100839.72
2023-01-19T18:26:19.979Z,100819.03
2023-01-19T18:28:47.878Z,100836.41
2023-01-19T18:31:17.852Z,100845.47
2023-01-19T18:33:44.829Z,100841.97
2023-01-19T18:36:11.901Z,100815.25
2023-01-19T18:38:39.191Z,100837.84
2023-01-19T18:41:08.686Z,100838.78
2023-01-19T18:43:35.385Z,100851.53
2023-01-19T18:46:02.714Z,100849.81
2023-01-19T18:48:30.063Z,100842.22
2023-01-19T18:50:57.078Z,100847.50
2023-01-19T18:53:24.290Z,100836.91
2023-01-19T18:55:57.448Z,100862.47
2023-01-19T18:58:24.693Z,100859.00
2023-01-19T19:00:51.436Z,100840.91
2023-01-19T19:03:18.296Z,100861.78
2023-01-19T19:05:45.238Z,100864.22
2023-01-19T19:08:14.285Z,100859.88
2023-01-19T19:10:42.303Z,100860.94
2023-01-19T19:13:12.118Z,100871.84
2023-01-19T19:15:38.909Z,100868.56
2023-01-19T19:18:05.991Z,100868.91
2023-01-19T19:20:38.220Z,100848.13
2023-01-19T19:23:07.395Z,100848.28
2023-01-19T19:25:34.081Z,100878.78
2023-01-19T19:28:01.116Z,100882.63
2023-01-19T19:30:28.361Z,100869.94
2023-01-19T19:32:59.075Z,100874.47
2023-01-19T19:35:26.599Z,100849.44
2023-01-19T19:37:57.844Z,100864.91
2023-01-19T19:40:30.477Z,100850.47
2023-01-19T19:42:58.841Z,100878.72
2023-01-19T19:45:25.668Z,100875.16
2023-01-19T19:47:52.377Z,100875.31
2023-01-19T19:50:19.329Z,100885.97
2023-01-19T19:52:46.102Z,100885.28
2023-01-19T19:55:12.849Z,100887.03
2023-01-19T19:57:39.748Z,100898.72
2023-01-19T20:00:09.607Z,100897.94
2023-01-19T20:02:36.766Z,100907.03
2023-01-19T20:05:04.577Z,100902.72
2023-01-19T20:07:31.350Z,100877.63
2023-01-19T20:09:58.062Z,100910.06
2023-01-19T20:12:25.081Z,100884.16
2023-01-19T20:14:51.685Z,100917.34
2023-01-19T20:17:19.096Z,100896.63
2023-01-19T20:19:47.706Z,100918.28
2023-01-19T20:22:14.581Z,100898.66
2023-01-19T20:24:41.161Z,100924.00
2023-01-19T20:27:10.576Z,100899.81
2023-01-19T20:29:37.259Z,100917.38
2023-01-19T20:32:06.625Z,100933.84
2023-01-19T20:34:35.658Z,100945.50
2023-01-19T20:37:07.124Z,100946.72
2023-01-19T20:39:39.837Z,100971.56
2023-01-19T20:42:11.359Z,100974.78
2023-01-19T20:44:38.283Z,100944.97
2023-01-19T20:47:09.283Z,100954.19
2023-01-19T20:49:38.649Z,100979.00
2023-01-19T20:52:05.255Z,100988.44
2023-01-19T20:54:31.894Z,100996.25
2023-01-19T20:56:59.856Z,100993.38
2023-01-19T20:59:27.237Z,101002.75
2023-01-19T21:01:54.525Z,100992.97
2023-01-19T21:04:22.396Z,100970.13
2023-01-19T21:06:49.864Z,101004.84
2023-01-19T21:09:18.670Z,101008.28
2023-01-19T21:11:45.991Z,101007.28
2023-01-19T21:14:12.836Z,101002.22
2023-01-19T21:16:39.537Z,101018.72
2023-01-19T21:19:06.742Z,101020.38
2023-01-19T21:21:35.671Z,101023.84
2023-01-19T21:24:04.163Z,101021.22
2023-01-19T21:26:31.578Z,101026.53
2023-01-19T21:28:59.862Z,101023.66
2023-01-19T21:31:27.919Z,101030.66
2023-01-19T21:33:54.956Z,101033.34
2023-01-19T21:36:25.104Z,101029.13
2023-01-19T21:38:55.693Z,101038.66
2023-01-19T21:41:24.862Z,101025.56
2023-01-19T21:43:51.631Z,101041.06
2023-01-19T21:46:20.524Z,101042.91
2023-01-19T21:48:50.446Z,101023.91
2023-01-19T21:51:23.436Z,101050.63
2023-01-19T21:53:52.266Z,101030.56
2023-01-19T21:56:18.925Z,101026.25
2023-01-19T21:58:47.450Z,101052.25
2023-01-19T22:01:14.346Z,101063.91
2023-01-19T22:03:47.146Z,101059.38
2023-01-19T22:06:14.913Z,101055.75
2023-01-19T22:08:41.952Z,101053.91
2023-01-19T22:11:11.960Z,101056.78
2023-01-19T22:13:41.908Z,101064.50
2023-01-19T22:16:11.707Z,101061.75
2023-01-19T22:18:41.089Z,101058.97
2023-01-19T22:21:22.003Z,101050.47
2023-01-19T22:23:51.525Z,101070.50
2023-01-19T22:26:18.675Z,101066.06
2023-01-19T22:28:45.641Z,101075.78
2023-01-19T22:31:17.603Z,101065.19
2023-01-19T22:33:49.121Z,101068.75
2023-01-19T22:36:27.672Z,101075.78
2023-01-19T22:38:59.005Z,101065.38
2023-01-19T22:41:28.468Z,101077.53
2023-01-19T22:43:59.485Z,101035.78
2023-01-19T22:46:29.083Z,101049.56
2023-01-19T22:48:56.689Z,101070.50
2023-01-19T22:51:26.781Z,101072.31
2023-01-19T22:53:53.563Z,101072.41
2023-01-19T22:56:25.485Z,101064.50
2023-01-19T22:58:52.593Z,101069.38
2023-01-19T23:01:22.213Z,101065.88
2023-01-19T23:03:49.139Z,101063.56
2023-01-19T23:06:18.563Z,101064.69
2023-01-19T23:08:45.625Z,101044.38
2023-01-19T23:11:22.663Z,101080.47
2023-01-19T23:13:50.346Z,101069.03
2023-01-19T23:16:20.382Z,101044.97
2023-01-19T23:18:47.766Z,101065.00
2023-01-19T23:21:19.089Z,101055.47
2023-01-19T23:23:46.440Z,101079.41
2023-01-19T23:26:15.683Z,101050.75
2023-01-19T23:28:43.403Z,101072.47
2023-01-19T23:31:24.678Z,101078.16
2023-01-19T23:33:56.695Z,101056.66
2023-01-19T23:36:25.262Z,101098.81
2023-01-19T23:38:53.759Z,101094.13
2023-01-19T23:41:21.206Z,101087.72
2023-01-19T23:43:48.286Z,101095.72
2023-01-19T23:46:15.984Z,101099.09
2023-01-19T23:48:42.816Z,101099.78
2023-01-19T23:51:12.705Z,101098.75
2023-01-19T23:53:42.245Z,101096.06
2023-01-19T23:56:30.709Z,101092.69
2023-01-19T23:59:10.769Z,101117.25
